sensor_id;sensor_type;location;lat;lon;timestamp;pressure;altitude;pressure_sealevel;temperature;humidity
77118;BME280;66072;50.238;19.228;2023-05-07T00:00:04;98628.55;;;9.70;85.63
77118;BME280;66072;50.238;19.228;2023-05-07T00:02:52;98621.21;;;9.71;85.55
77118;BME280;66072;50.238;19.228;2023-05-07T00:05:20;98622.05;;;9.71;85.55
77118;BME280;66072;50.238;19.228;2023-05-07T00:07:47;98623.75;;;9.71;85.46
77118;BME280;66072;50.238;19.228;2023-05-07T00:10:15;98625.61;;;9.72;85.50
77118;BME280;66072;50.238;19.228;2023-05-07T00:12:42;98626.11;;;9.72;85.14
77118;BME280;66072;50.238;19.228;2023-05-07T00:15:10;98626.48;;;9.71;85.31
77118;BME280;66072;50.238;19.228;2023-05-07T00:17:38;98623.63;;;9.70;85.23
77118;BME280;66072;50.238;19.228;2023-05-07T00:20:06;98625.48;;;9.70;85.52
77118;BME280;66072;50.238;19.228;2023-05-07T00:22:34;98629.27;;;9.70;85.61
77118;BME280;66072;50.238;19.228;2023-05-07T00:25:02;98631.55;;;9.67;85.49
77118;BME280;66072;50.238;19.228;2023-05-07T00:27:29;98631.69;;;9.65;85.28
77118;BME280;66072;50.238;19.228;2023-05-07T00:29:57;98632.44;;;9.62;85.53
77118;BME280;66072;50.238;19.228;2023-05-07T00:32:24;98634.98;;;9.59;85.54
77118;BME280;66072;50.238;19.228;2023-05-07T00:34:52;98637.52;;;9.55;85.43
77118;BME280;66072;50.238;19.228;2023-05-07T00:37:19;98635.20;;;9.49;85.44
77118;BME280;66072;50.238;19.228;2023-05-07T00:39:47;98634.18;;;9.44;85.39
77118;BME280;66072;50.238;19.228;2023-05-07T00:42:15;98636.78;;;9.39;85.61
77118;BME280;66072;50.238;19.228;2023-05-07T00:44:42;98644.17;;;9.33;85.57
77118;BME280;66072;50.238;19.228;2023-05-07T00:47:10;98650.39;;;9.27;85.68
77118;BME280;66072;50.238;19.228;2023-05-07T00:49:39;98650.86;;;9.24;85.70
77118;BME280;66072;50.238;19.228;2023-05-07T00:52:14;98645.52;;;9.21;85.69
77118;BME280;66072;50.238;19.228;2023-05-07T00:54:43;98649.63;;;9.16;85.60
77118;BME280;66072;50.238;19.228;2023-05-07T00:57:10;98643.37;;;9.10;85.49
77118;BME280;66072;50.238;19.228;2023-05-07T00:59:38;98645.67;;;9.03;85.74
77118;BME280;66072;50.238;19.228;2023-05-07T01:02:06;98645.83;;;8.99;85.73
77118;BME280;66072;50.238;19.228;2023-05-07T01:04:34;98648.98;;;8.97;85.96
77118;BME280;66072;50.238;19.228;2023-05-07T01:07:02;98657.40;;;8.95;86.17
77118;BME280;66072;50.238;19.228;2023-05-07T01:09:30;98657.74;;;8.90;86.13
77118;BME280;66072;50.238;19.228;2023-05-07T01:11:58;98661.84;;;8.86;86.30
77118;BME280;66072;50.238;19.228;2023-05-07T01:14:26;98657.97;;;8.80;86.35
77118;BME280;66072;50.238;19.228;2023-05-07T01:16:54;98656.10;;;8.74;86.73
77118;BME280;66072;50.238;19.228;2023-05-07T01:19:22;98662.15;;;8.72;86.66
77118;BME280;66072;50.238;19.228;2023-05-07T01:21:50;98662.29;;;8.68;86.60
77118;BME280;66072;50.238;19.228;2023-05-07T01:24:18;98660.86;;;8.65;86.86
77118;BME280;66072;50.238;19.228;2023-05-07T01:26:46;98660.67;;;8.61;87.03
77118;BME280;66072;50.238;19.228;2023-05-07T01:29:13;98661.95;;;8.58;87.03
77118;BME280;66072;50.238;19.228;2023-05-07T01:31:42;98660.44;;;8.58;87.15
77118;BME280;66072;50.238;19.228;2023-05-07T01:34:12;98659.77;;;8.57;87.47
77118;BME280;66072;50.238;19.228;2023-05-07T01:36:42;98661.48;;;8.57;87.35
77118;BME280;66072;50.238;19.228;2023-05-07T01:39:10;98661.04;;;8.56;87.23
77118;BME280;66072;50.238;19.228;2023-05-07T01:41:37;98657.52;;;8.54;87.60
77118;BME280;66072;50.238;19.228;2023-05-07T01:44:05;98656.95;;;8.55;87.68
77118;BME280;66072;50.238;19.228;2023-05-07T01:46:34;98659.13;;;8.56;87.61
77118;BME280;66072;50.238;19.228;2023-05-07T01:49:01;98661.30;;;8.57;87.58
77118;BME280;66072;50.238;19.228;2023-05-07T01:51:29;98661.80;;;8.58;87.40
77118;BME280;66072;50.238;19.228;2023-05-07T01:53:57;98662.47;;;8.58;87.53
77118;BME280;66072;50.238;19.228;2023-05-07T01:56:24;98662.48;;;8.58;87.34
77118;BME280;66072;50.238;19.228;2023-05-07T01:58:52;98657.10;;;8.56;87.23
77118;BME280;66072;50.238;19.228;2023-05-07T02:01:20;98659.52;;;8.55;87.15
77118;BME280;66072;50.238;19.228;2023-05-07T02:03:48;98661.10;;;8.54;87.21
77118;BME280;66072;50.238;19.228;2023-05-07T02:06:16;98664.38;;;8.53;87.17
77118;BME280;66072;50.238;19.228;2023-05-07T02:08:43;98662.76;;;8.50;87.29
77118;BME280;66072;50.238;19.228;2023-05-07T02:11:11;98662.90;;;8.46;87.21
77118;BME280;66072;50.238;19.228;2023-05-07T02:13:38;98659.54;;;8.45;87.16
77118;BME280;66072;50.238;19.228;2023-05-07T02:16:06;98660.11;;;8.43;87.19
77118;BME280;66072;50.238;19.228;2023-05-07T02:18:34;98664.73;;;8.43;87.28
77118;BME280;66072;50.238;19.228;2023-05-07T02:21:01;98663.95;;;8.40;87.40
77118;BME280;66072;50.238;19.228;2023-05-07T02:23:29;98665.34;;;8.40;87.19
77118;BME280;66072;50.238;19.228;2023-05-07T02:25:56;98665.83;;;8.41;87.35
77118;BME280;66072;50.238;19.228;2023-05-07T02:28:24;98663.85;;;8.44;87.44
77118;BME280;66072;50.238;19.228;2023-05-07T02:30:52;98664.27;;;8.46;87.49
77118;BME280;66072;50.238;19.228;2023-05-07T02:33:20;98665.25;;;8.47;87.39
77118;BME280;66072;50.238;19.228;2023-05-07T02:35:47;98669.17;;;8.47;87.25
77118;BME280;66072;50.238;19.228;2023-05-07T02:38:15;98670.87;;;8.48;87.13
77118;BME280;66072;50.238;19.228;2023-05-07T02:40:42;98672.14;;;8.50;87.13
77118;BME280;66072;50.238;19.228;2023-05-07T02:43:10;98674.34;;;8.50;87.13
77118;BME280;66072;50.238;19.228;2023-05-07T02:45:38;98678.45;;;8.50;86.88
77118;BME280;66072;50.238;19.228;2023-05-07T02:48:05;98673.80;;;8.46;86.86
77118;BME280;66072;50.238;19.228;2023-05-07T02:50:33;98676.27;;;8.44;86.82
77118;BME280;66072;50.238;19.228;2023-05-07T02:53:00;98678.50;;;8.44;86.80
77118;BME280;66072;50.238;19.228;2023-05-07T02:55:28;98678.14;;;8.44;86.92
77118;BME280;66072;50.238;19.228;2023-05-07T02:57:56;98681.64;;;8.46;87.05
77118;BME280;66072;50.238;19.228;2023-05-07T03:00:23;98682.61;;;8.48;86.87
77118;BME280;66072;50.238;19.228;2023-05-07T03:02:51;98680.91;;;8.48;86.73
77118;BME280;66072;50.238;19.228;2023-05-07T03:05:19;98680.08;;;8.47;86.60
77118;BME280;66072;50.238;19.228;2023-05-07T03:07:47;98682.77;;;8.48;86.74
77118;BME280;66072;50.238;19.228;2023-05-07T03:10:14;98678.39;;;8.47;86.51
77118;BME280;66072;50.238;19.228;2023-05-07T03:12:42;98680.75;;;8.48;86.44
77118;BME280;66072;50.238;19.228;2023-05-07T03:15:10;98683.80;;;8.48;86.44
77118;BME280;66072;50.238;19.228;2023-05-07T03:17:37;98686.67;;;8.49;86.18
77118;BME280;66072;50.238;19.228;2023-05-07T03:20:05;98690.65;;;8.47;86.12
77118;BME280;66072;50.238;19.228;2023-05-07T03:22:33;98695.15;;;8.45;85.99
77118;BME280;66072;50.238;19.228;2023-05-07T03:25:01;98698.41;;;8.44;85.95
77118;BME280;66072;50.238;19.228;2023-05-07T03:27:28;98702.41;;;8.42;85.71
77118;BME280;66072;50.238;19.228;2023-05-07T03:29:56;98706.64;;;8.38;85.63
77118;BME280;66072;50.238;19.228;2023-05-07T03:32:23;98713.15;;;8.37;85.83
77118;BME280;66072;50.238;19.228;2023-05-07T03:34:52;98714.73;;;8.36;85.79
77118;BME280;66072;50.238;19.228;2023-05-07T03:37:19;98717.80;;;8.35;85.71
77118;BME280;66072;50.238;19.228;2023-05-07T03:39:47;98718.83;;;8.35;85.74
77118;BME280;66072;50.238;19.228;2023-05-07T03:42:14;98721.72;;;8.36;85.86
77118;BME280;66072;50.238;19.228;2023-05-07T03:44:42;98726.15;;;8.36;85.58
77118;BME280;66072;50.238;19.228;2023-05-07T03:47:10;98726.17;;;8.34;85.49
77118;BME280;66072;50.238;19.228;2023-05-07T03:49:37;98732.52;;;8.32;85.49
77118;BME280;66072;50.238;19.228;2023-05-07T03:52:05;98728.79;;;8.32;85.71
77118;BME280;66072;50.238;19.228;2023-05-07T03:54:33;98731.03;;;8.31;85.57
77118;BME280;66072;50.238;19.228;2023-05-07T03:57:01;98729.91;;;8.29;85.30
77118;BME280;66072;50.238;19.228;2023-05-07T03:59:28;98729.80;;;8.28;85.33
77118;BME280;66072;50.238;19.228;2023-05-07T04:01:56;98733.89;;;8.27;85.29
77118;BME280;66072;50.238;19.228;2023-05-07T04:04:24;98734.27;;;8.26;85.26
77118;BME280;66072;50.238;19.228;2023-05-07T04:06:51;98740.15;;;8.24;85.12
77118;BME280;66072;50.238;19.228;2023-05-07T04:09:19;98744.85;;;8.20;85.10
77118;BME280;66072;50.238;19.228;2023-05-07T04:11:46;98746.63;;;8.18;85.11
77118;BME280;66072;50.238;19.228;2023-05-07T04:14:14;98750.73;;;8.18;85.14
77118;BME280;66072;50.238;19.228;2023-05-07T04:16:42;98752.16;;;8.16;85.01
77118;BME280;66072;50.238;19.228;2023-05-07T04:19:09;98750.23;;;8.13;85.14
77118;BME280;66072;50.238;19.228;2023-05-07T04:21:37;98756.07;;;8.12;85.06
77118;BME280;66072;50.238;19.228;2023-05-07T04:24:04;98758.98;;;8.11;85.15
77118;BME280;66072;50.238;19.228;2023-05-07T04:26:32;98762.39;;;8.10;85.04
77118;BME280;66072;50.238;19.228;2023-05-07T04:29:00;98770.04;;;8.11;85.18
77118;BME280;66072;50.238;19.228;2023-05-07T04:31:27;98771.38;;;8.12;84.90
77118;BME280;66072;50.238;19.228;2023-05-07T04:33:55;98776.73;;;8.14;84.79
77118;BME280;66072;50.238;19.228;2023-05-07T04:36:22;98777.20;;;8.15;84.62
77118;BME280;66072;50.238;19.228;2023-05-07T04:38:50;98782.83;;;8.16;84.63
77118;BME280;66072;50.238;19.228;2023-05-07T04:41:17;98786.08;;;8.16;84.72
77118;BME280;66072;50.238;19.228;2023-05-07T04:43:45;98788.83;;;8.15;84.59
77118;BME280;66072;50.238;19.228;2023-05-07T04:46:12;98793.48;;;8.13;84.44
77118;BME280;66072;50.238;19.228;2023-05-07T04:48:40;98796.31;;;8.09;84.22
77118;BME280;66072;50.238;19.228;2023-05-07T04:51:07;98797.25;;;8.07;83.95
77118;BME280;66072;50.238;19.228;2023-05-07T04:53:35;98795.78;;;8.04;84.04
77118;BME280;66072;50.238;19.228;2023-05-07T04:56:03;98801.95;;;8.03;83.90
77118;BME280;66072;50.238;19.228;2023-05-07T04:58:30;98802.46;;;8.03;83.83
77118;BME280;66072;50.238;19.228;2023-05-07T05:00:58;98809.48;;;8.02;83.79
77118;BME280;66072;50.238;19.228;2023-05-07T05:03:26;98816.00;;;8.00;83.72
77118;BME280;66072;50.238;19.228;2023-05-07T05:05:54;98819.30;;;7.99;83.69
77118;BME280;66072;50.238;19.228;2023-05-07T05:08:21;98819.57;;;8.01;84.05
77118;BME280;66072;50.238;19.228;2023-05-07T05:10:49;98821.50;;;8.04;83.98
77118;BME280;66072;50.238;19.228;2023-05-07T05:13:16;98820.70;;;8.08;83.86
77118;BME280;66072;50.238;19.228;2023-05-07T05:15:44;98825.84;;;8.14;83.72
77118;BME280;66072;50.238;19.228;2023-05-07T05:18:12;98826.14;;;8.15;83.54
77118;BME280;66072;50.238;19.228;2023-05-07T05:20:39;98828.45;;;8.18;83.63
77118;BME280;66072;50.238;19.228;2023-05-07T05:23:07;98832.27;;;8.20;83.57
77118;BME280;66072;50.238;19.228;2023-05-07T05:25:35;98836.30;;;8.22;83.19
77118;BME280;66072;50.238;19.228;2023-05-07T05:28:03;98841.50;;;8.25;83.32
77118;BME280;66072;50.238;19.228;2023-05-07T05:30:30;98842.97;;;8.27;83.05
77118;BME280;66072;50.238;19.228;2023-05-07T05:32:58;98847.80;;;8.25;82.68
77118;BME280;66072;50.238;19.228;2023-05-07T05:35:26;98850.70;;;8.25;82.57
77118;BME280;66072;50.238;19.228;2023-05-07T05:37:53;98855.27;;;8.26;82.45
77118;BME280;66072;50.238;19.228;2023-05-07T05:40:21;98861.91;;;8.26;82.43
77118;BME280;66072;50.238;19.228;2023-05-07T05:42:48;98860.88;;;8.26;82.40
77118;BME280;66072;50.238;19.228;2023-05-07T05:45:16;98860.99;;;8.28;82.37
77118;BME280;66072;50.238;19.228;2023-05-07T05:47:43;98866.59;;;8.29;82.38
77118;BME280;66072;50.238;19.228;2023-05-07T05:50:11;98869.27;;;8.31;82.17
77118;BME280;66072;50.238;19.228;2023-05-07T05:52:39;98867.96;;;8.29;81.90
77118;BME280;66072;50.238;19.228;2023-05-07T05:55:07;98872.74;;;8.29;81.95
77118;BME280;66072;50.238;19.228;2023-05-07T05:57:35;98873.88;;;8.30;81.89
77118;BME280;66072;50.238;19.228;2023-05-07T06:00:03;98878.06;;;8.32;81.85
77118;BME280;66072;50.238;19.228;2023-05-07T06:02:31;98881.96;;;8.33;81.54
77118;BME280;66072;50.238;19.228;2023-05-07T06:04:59;98873.33;;;8.31;81.51
77118;BME280;66072;50.238;19.228;2023-05-07T06:07:27;98874.85;;;8.32;81.61
77118;BME280;66072;50.238;19.228;2023-05-07T06:09:54;98881.08;;;8.34;81.79
77118;BME280;66072;50.238;19.228;2023-05-07T06:12:22;98888.58;;;8.35;81.29
77118;BME280;66072;50.238;19.228;2023-05-07T06:14:49;98889.95;;;8.34;81.23
77118;BME280;66072;50.238;19.228;2023-05-07T06:17:17;98888.57;;;8.36;81.43
77118;BME280;66072;50.238;19.228;2023-05-07T06:19:48;98895.95;;;8.40;81.21
77118;BME280;66072;50.238;19.228;2023-05-07T06:22:15;98894.04;;;8.40;81.02
77118;BME280;66072;50.238;19.228;2023-05-07T06:24:43;98897.24;;;8.42;80.66
77118;BME280;66072;50.238;19.228;2023-05-07T06:27:10;98896.18;;;8.38;80.17
77118;BME280;66072;50.238;19.228;2023-05-07T06:29:38;98896.81;;;8.33;80.49
77118;BME280;66072;50.238;19.228;2023-05-07T06:32:07;98902.90;;;8.35;80.35
77118;BME280;66072;50.238;19.228;2023-05-07T06:34:35;98902.96;;;8.39;80.35
77118;BME280;66072;50.238;19.228;2023-05-07T06:37:03;98907.22;;;8.44;80.33
77118;BME280;66072;50.238;19.228;2023-05-07T06:39:31;98911.33;;;8.44;79.92
77118;BME280;66072;50.238;19.228;2023-05-07T06:42:00;98908.83;;;8.36;79.79
77118;BME280;66072;50.238;19.228;2023-05-07T06:44:28;98912.36;;;8.31;80.10
77118;BME280;66072;50.238;19.228;2023-05-07T06:46:56;98917.35;;;8.30;79.88
77118;BME280;66072;50.238;19.228;2023-05-07T06:49:24;98918.86;;;8.25;79.53
77118;BME280;66072;50.238;19.228;2023-05-07T06:51:51;98919.70;;;8.14;79.64
77118;BME280;66072;50.238;19.228;2023-05-07T06:54:20;98921.23;;;8.07;79.78
77118;BME280;66072;50.238;19.228;2023-05-07T06:56:48;98922.27;;;8.07;79.87
77118;BME280;66072;50.238;19.228;2023-05-07T06:59:15;98922.09;;;8.07;80.00
77118;BME280;66072;50.238;19.228;2023-05-07T07:01:43;98923.21;;;8.11;79.98
77118;BME280;66072;50.238;19.228;2023-05-07T07:04:11;98928.93;;;8.13;79.90
77118;BME280;66072;50.238;19.228;2023-05-07T07:06:38;98929.87;;;8.16;79.90
77118;BME280;66072;50.238;19.228;2023-05-07T07:09:06;98931.79;;;8.20;79.84
77118;BME280;66072;50.238;19.228;2023-05-07T07:11:33;98932.96;;;8.27;79.54
77118;BME280;66072;50.238;19.228;2023-05-07T07:14:01;98935.54;;;8.38;79.36
77118;BME280;66072;50.238;19.228;2023-05-07T07:16:29;98939.70;;;8.53;79.03
77118;BME280;66072;50.238;19.228;2023-05-07T07:18:56;98942.85;;;8.67;78.15
77118;BME280;66072;50.238;19.228;2023-05-07T07:21:24;98944.55;;;8.78;77.56
77118;BME280;66072;50.238;19.228;2023-05-07T07:23:51;98944.23;;;8.88;77.57
77118;BME280;66072;50.238;19.228;2023-05-07T07:26:19;98947.14;;;8.98;77.22
77118;BME280;66072;50.238;19.228;2023-05-07T07:28:47;98951.22;;;8.99;76.24
77118;BME280;66072;50.238;19.228;2023-05-07T07:31:14;98953.25;;;8.99;76.62
77118;BME280;66072;50.238;19.228;2023-05-07T07:33:42;98960.27;;;9.04;76.33
77118;BME280;66072;50.238;19.228;2023-05-07T07:36:09;98964.66;;;9.05;75.90
77118;BME280;66072;50.238;19.228;2023-05-07T07:38:37;98967.24;;;9.10;76.10
77118;BME280;66072;50.238;19.228;2023-05-07T07:41:04;98969.57;;;9.17;75.96
77118;BME280;66072;50.238;19.228;2023-05-07T07:43:32;98969.36;;;9.28;75.64
77118;BME280;66072;50.238;19.228;2023-05-07T07:45:59;98971.87;;;9.40;75.52
77118;BME280;66072;50.238;19.228;2023-05-07T07:48:27;98972.83;;;9.52;74.79
77118;BME280;66072;50.238;19.228;2023-05-07T07:50:54;98976.10;;;9.71;74.70
77118;BME280;66072;50.238;19.228;2023-05-07T07:53:22;98983.02;;;9.89;73.24
77118;BME280;66072;50.238;19.228;2023-05-07T07:55:50;98979.43;;;9.93;73.05
77118;BME280;66072;50.238;19.228;2023-05-07T07:58:17;98981.12;;;9.99;72.98
77118;BME280;66072;50.238;19.228;2023-05-07T08:00:45;98979.34;;;10.00;72.46
77118;BME280;66072;50.238;19.228;2023-05-07T08:03:12;98975.44;;;10.04;72.46
77118;BME280;66072;50.238;19.228;2023-05-07T08:05:40;98981.45;;;10.08;71.72
77118;BME280;66072;50.238;19.228;2023-05-07T08:08:08;98983.70;;;10.07;71.61
77118;BME280;66072;50.238;19.228;2023-05-07T08:10:36;98987.43;;;10.13;71.05
77118;BME280;66072;50.238;19.228;2023-05-07T08:13:04;98988.63;;;10.18;70.64
77118;BME280;66072;50.238;19.228;2023-05-07T08:15:32;98990.71;;;10.22;71.03
77118;BME280;66072;50.238;19.228;2023-05-07T08:17:59;98992.36;;;10.24;70.49
77118;BME280;66072;50.238;19.228;2023-05-07T08:20:28;98991.67;;;10.24;70.68
77118;BME280;66072;50.238;19.228;2023-05-07T08:22:56;98993.73;;;10.33;70.46
77118;BME280;66072;50.238;19.228;2023-05-07T08:25:23;98995.59;;;10.43;69.96
77118;BME280;66072;50.238;19.228;2023-05-07T08:27:51;98996.30;;;10.61;69.78
77118;BME280;66072;50.238;19.228;2023-05-07T08:30:19;98999.56;;;10.78;68.96
77118;BME280;66072;50.238;19.228;2023-05-07T08:32:46;99000.48;;;10.81;68.64
77118;BME280;66072;50.238;19.228;2023-05-07T08:35:14;99002.06;;;10.75;68.54
77118;BME280;66072;50.238;19.228;2023-05-07T08:37:41;99009.32;;;10.64;68.78
77118;BME280;66072;50.238;19.228;2023-05-07T08:40:09;99015.98;;;10.60;69.02
77118;BME280;66072;50.238;19.228;2023-05-07T08:42:41;99016.89;;;10.59;68.81
77118;BME280;66072;50.238;19.228;2023-05-07T08:45:10;99020.06;;;10.61;68.78
77118;BME280;66072;50.238;19.228;2023-05-07T08:47:42;99022.84;;;10.60;68.73
77118;BME280;66072;50.238;19.228;2023-05-07T08:50:11;99027.88;;;10.58;68.85
77118;BME280;66072;50.238;19.228;2023-05-07T08:52:40;99026.90;;;10.57;68.72
77118;BME280;66072;50.238;19.228;2023-05-07T08:55:08;99032.23;;;10.51;68.15
77118;BME280;66072;50.238;19.228;2023-05-07T08:57:36;99038.90;;;10.42;68.20
77118;BME280;66072;50.238;19.228;2023-05-07T09:00:07;99034.71;;;10.35;68.05
77118;BME280;66072;50.238;19.228;2023-05-07T09:02:35;99045.52;;;10.34;68.98
77118;BME280;66072;50.238;19.228;2023-05-07T09:05:03;99045.29;;;10.36;68.79
77118;BME280;66072;50.238;19.228;2023-05-07T09:07:31;99048.64;;;10.38;68.84
77118;BME280;66072;50.238;19.228;2023-05-07T09:10:01;99052.72;;;10.34;68.62
77118;BME280;66072;50.238;19.228;2023-05-07T09:12:29;99059.39;;;10.29;68.66
77118;BME280;66072;50.238;19.228;2023-05-07T09:14:58;99064.09;;;10.31;68.89
77118;BME280;66072;50.238;19.228;2023-05-07T09:17:26;99060.97;;;10.28;68.75
77118;BME280;66072;50.238;19.228;2023-05-07T09:19:54;99062.03;;;10.21;69.02
77118;BME280;66072;50.238;19.228;2023-05-07T09:22:21;99063.38;;;10.16;68.98
77118;BME280;66072;50.238;19.228;2023-05-07T09:24:50;99065.16;;;10.14;69.53
77118;BME280;66072;50.238;19.228;2023-05-07T09:27:18;99068.51;;;10.12;69.41
77118;BME280;66072;50.238;19.228;2023-05-07T09:29:45;99073.80;;;10.07;69.43
77118;BME280;66072;50.238;19.228;2023-05-07T09:32:14;99079.41;;;9.98;69.46
77118;BME280;66072;50.238;19.228;2023-05-07T09:34:42;99080.45;;;9.92;69.76
77118;BME280;66072;50.238;19.228;2023-05-07T09:37:12;99081.16;;;9.91;69.68
77118;BME280;66072;50.238;19.228;2023-05-07T09:39:46;99079.83;;;9.91;69.94
77118;BME280;66072;50.238;19.228;2023-05-07T09:42:14;99080.27;;;9.98;69.76
77118;BME280;66072;50.238;19.228;2023-05-07T09:44:45;99081.08;;;10.09;69.28
77118;BME280;66072;50.238;19.228;2023-05-07T09:47:19;99084.40;;;10.22;69.48
77118;BME280;66072;50.238;19.228;2023-05-07T09:49:48;99088.40;;;10.40;68.76
77118;BME280;66072;50.238;19.228;2023-05-07T09:52:16;99086.61;;;10.57;68.41
77118;BME280;66072;50.238;19.228;2023-05-07T09:54:45;99088.50;;;10.65;67.37
77118;BME280;66072;50.238;19.228;2023-05-07T09:57:13;99087.43;;;10.67;67.32
77118;BME280;66072;50.238;19.228;2023-05-07T09:59:42;99084.36;;;10.80;67.39
77118;BME280;66072;50.238;19.228;2023-05-07T10:02:11;99092.52;;;10.86;67.27
77118;BME280;66072;50.238;19.228;2023-05-07T10:04:39;99094.63;;;10.90;67.46
77118;BME280;66072;50.238;19.228;2023-05-07T10:07:08;99101.14;;;10.85;66.91
77118;BME280;66072;50.238;19.228;2023-05-07T10:09:36;99103.77;;;10.73;66.57
77118;BME280;66072;50.238;19.228;2023-05-07T10:12:05;99104.71;;;10.66;67.01
77118;BME280;66072;50.238;19.228;2023-05-07T10:14:33;99108.06;;;10.73;67.19
77118;BME280;66072;50.238;19.228;2023-05-07T10:17:02;99112.39;;;10.86;67.46
77118;BME280;66072;50.238;19.228;2023-05-07T10:19:30;99116.31;;;10.95;66.89
77118;BME280;66072;50.238;19.228;2023-05-07T10:22:01;99117.79;;;10.88;66.44
77118;BME280;66072;50.238;19.228;2023-05-07T10:24:32;99120.55;;;10.78;66.88
77118;BME280;66072;50.238;19.228;2023-05-07T10:27:01;99125.92;;;10.76;67.11
77118;BME280;66072;50.238;19.228;2023-05-07T10:32:14;99124.63;;;11.11;66.58
77118;BME280;66072;50.238;19.228;2023-05-07T10:34:48;99125.92;;;11.21;65.73
77118;BME280;66072;50.238;19.228;2023-05-07T10:37:18;99130.70;;;11.35;65.77
77118;BME280;66072;50.238;19.228;2023-05-07T10:39:46;99135.95;;;11.46;64.78
77118;BME280;66072;50.238;19.228;2023-05-07T10:42:15;99133.39;;;11.32;64.93
77118;BME280;66072;50.238;19.228;2023-05-07T10:44:42;99135.47;;;11.32;65.20
77118;BME280;66072;50.238;19.228;2023-05-07T10:47:14;99137.62;;;11.42;65.30
77118;BME280;66072;50.238;19.228;2023-05-07T10:52:23;99143.27;;;11.47;64.40
77118;BME280;66072;50.238;19.228;2023-05-07T10:57:44;99138.89;;;11.27;64.24
77118;BME280;66072;50.238;19.228;2023-05-07T11:03:05;99142.34;;;10.91;65.24
77118;BME280;66072;50.238;19.228;2023-05-07T11:05:33;99140.77;;;10.82;65.98
77118;BME280;66072;50.238;19.228;2023-05-07T11:08:05;99142.95;;;10.78;65.94
77118;BME280;66072;50.238;19.228;2023-05-07T11:10:52;99148.35;;;10.71;65.91
77118;BME280;66072;50.238;19.228;2023-05-07T11:13:56;99149.48;;;10.53;66.05
77118;BME280;66072;50.238;19.228;2023-05-07T11:16:24;99150.12;;;10.50;66.26
77118;BME280;66072;50.238;19.228;2023-05-07T11:18:54;99149.38;;;10.57;66.11
77118;BME280;66072;50.238;19.228;2023-05-07T11:21:42;99150.89;;;10.62;66.01
77118;BME280;66072;50.238;19.228;2023-05-07T11:24:10;99159.34;;;10.65;66.11
77118;BME280;66072;50.238;19.228;2023-05-07T11:26:48;99162.33;;;10.67;66.49
77118;BME280;66072;50.238;19.228;2023-05-07T11:29:21;99162.53;;;10.62;66.13
77118;BME280;66072;50.238;19.228;2023-05-07T11:31:51;99168.44;;;10.55;66.28
77118;BME280;66072;50.238;19.228;2023-05-07T11:34:23;99169.91;;;10.52;66.64
77118;BME280;66072;50.238;19.228;2023-05-07T11:36:52;99172.05;;;10.49;66.01
77118;BME280;66072;50.238;19.228;2023-05-07T11:39:24;99172.95;;;10.47;66.41
77118;BME280;66072;50.238;19.228;2023-05-07T11:41:52;99177.10;;;10.46;66.42
77118;BME280;66072;50.238;19.228;2023-05-07T11:44:20;99179.80;;;10.42;66.46
77118;BME280;66072;50.238;19.228;2023-05-07T11:46:48;99177.59;;;10.42;66.54
77118;BME280;66072;50.238;19.228;2023-05-07T11:49:16;99179.26;;;10.43;66.75
77118;BME280;66072;50.238;19.228;2023-05-07T11:51:44;99179.38;;;10.59;66.72
77118;BME280;66072;50.238;19.228;2023-05-07T11:54:15;99174.73;;;10.98;65.84
77118;BME280;66072;50.238;19.228;2023-05-07T11:56:44;99174.63;;;11.24;64.94
77118;BME280;66072;50.238;19.228;2023-05-07T11:59:11;99173.13;;;11.27;64.40
77118;BME280;66072;50.238;19.228;2023-05-07T12:01:39;99170.92;;;11.18;64.28
77118;BME280;66072;50.238;19.228;2023-05-07T12:04:06;99174.94;;;11.07;64.30
77118;BME280;66072;50.238;19.228;2023-05-07T12:06:36;99174.70;;;10.99;64.56
77118;BME280;66072;50.238;19.228;2023-05-07T12:09:04;99176.86;;;10.96;64.88
77118;BME280;66072;50.238;19.228;2023-05-07T12:11:31;99176.10;;;10.94;64.58
77118;BME280;66072;50.238;19.228;2023-05-07T12:13:59;99180.34;;;10.95;64.76
77118;BME280;66072;50.238;19.228;2023-05-07T12:16:27;99184.55;;;11.15;64.65
77118;BME280;66072;50.238;19.228;2023-05-07T12:18:55;99181.28;;;11.29;64.59
77118;BME280;66072;50.238;19.228;2023-05-07T12:21:23;99179.65;;;11.32;64.12
77118;BME280;66072;50.238;19.228;2023-05-07T12:23:50;99186.48;;;11.23;63.84
77118;BME280;66072;50.238;19.228;2023-05-07T12:26:19;99187.77;;;11.21;63.59
77118;BME280;66072;50.238;19.228;2023-05-07T12:28:47;99188.54;;;11.41;63.38
77118;BME280;66072;50.238;19.228;2023-05-07T12:31:14;99192.14;;;11.76;62.71
77118;BME280;66072;50.238;19.228;2023-05-07T12:33:42;99193.98;;;12.12;61.96
77118;BME280;66072;50.238;19.228;2023-05-07T12:36:12;99197.23;;;12.12;60.74
77118;BME280;66072;50.238;19.228;2023-05-07T12:38:40;99193.84;;;11.90;60.91
77118;BME280;66072;50.238;19.228;2023-05-07T12:41:10;99198.69;;;11.71;61.84
77118;BME280;66072;50.238;19.228;2023-05-07T12:43:37;99194.20;;;11.59;62.16
77118;BME280;66072;50.238;19.228;2023-05-07T12:46:07;99195.61;;;11.35;62.06
77118;BME280;66072;50.238;19.228;2023-05-07T12:48:43;99198.00;;;11.17;62.74
77118;BME280;66072;50.238;19.228;2023-05-07T12:51:11;99200.88;;;10.99;63.14
77118;BME280;66072;50.238;19.228;2023-05-07T12:53:41;99204.46;;;10.86;63.56
77118;BME280;66072;50.238;19.228;2023-05-07T12:56:08;99205.38;;;10.70;63.89
77118;BME280;66072;50.238;19.228;2023-05-07T12:58:36;99211.55;;;10.54;64.24
77118;BME280;66072;50.238;19.228;2023-05-07T13:01:05;99209.94;;;10.41;64.25
77118;BME280;66072;50.238;19.228;2023-05-07T13:03:35;99207.02;;;10.32;64.73
77118;BME280;66072;50.238;19.228;2023-05-07T13:06:06;99209.19;;;10.28;65.30
77118;BME280;66072;50.238;19.228;2023-05-07T13:08:36;99212.83;;;10.27;65.33
77118;BME280;66072;50.238;19.228;2023-05-07T13:11:04;99216.02;;;10.39;65.30
77118;BME280;66072;50.238;19.228;2023-05-07T13:13:34;99216.75;;;10.62;64.77